Edenville, Michigan
Current Conditions -  °F | °C
As of 3:34 AM on Monday 22 Dec 2014 (Local Time) from KIKW Reporting Station
Clear Clear  
Wind Chill: -1°   Ceiling: Unl
Heat Index: -1°   Visibility: 10mi
Dew Point: -4°   Wind: 3mph
Humidity: 80%   Direction: 140°SE
Pressure: 30.11"   Gusts: NA
Location:  43.8°N, 84.38°W
Report Text: KIKW 220834Z AUTO 14003KT 10SM CLR M01/M04 A3011 RMK AO2 T10101041
Loading
Personal Weather Stations






























Interactive Weather Map New forecast layout! Learn more

10-Day Weather Forecast

Advertisements
Track Severe Weather on mobile